sensor_id;sensor_type;location;lat;lon;timestamp;temperature;humidity
22974;DHT22;11653;50.848;4.584;2022-12-18T00:01:57;-3.90;99.90
22974;DHT22;11653;50.848;4.584;2022-12-18T00:04:25;-3.90;99.90
22974;DHT22;11653;50.848;4.584;2022-12-18T00:06:51;-3.90;99.90
22974;DHT22;11653;50.848;4.584;2022-12-18T00:09:17;-4.00;99.90
22974;DHT22;11653;50.848;4.584;2022-12-18T00:11:42;-4.00;99.90
22974;DHT22;11653;50.848;4.584;2022-12-18T00:14:09;-4.10;99.90
22974;DHT22;11653;50.848;4.584;2022-12-18T00:16:36;-4.20;99.90
22974;DHT22;11653;50.848;4.584;2022-12-18T00:19:03;-4.20;99.90
22974;DHT22;11653;50.848;4.584;2022-12-18T00:21:30;-4.30;99.90
22974;DHT22;11653;50.848;4.584;2022-12-18T00:23:57;-4.20;99.90
22974;DHT22;11653;50.848;4.584;2022-12-18T00:26:26;-4.30;99.90
22974;DHT22;11653;50.848;4.584;2022-12-18T00:28:52;-4.50;99.90
22974;DHT22;11653;50.848;4.584;2022-12-18T00:31:20;-4.50;99.90
22974;DHT22;11653;50.848;4.584;2022-12-18T00:33:47;-4.60;99.90
22974;DHT22;11653;50.848;4.584;2022-12-18T00:36:16;-4.50;99.90
22974;DHT22;11653;50.848;4.584;2022-12-18T00:38:42;-4.50;99.90
22974;DHT22;11653;50.848;4.584;2022-12-18T00:41:11;-4.60;99.90
22974;DHT22;11653;50.848;4.584;2022-12-18T00:43:38;-4.60;99.90
22974;DHT22;11653;50.848;4.584;2022-12-18T00:46:05;-4.60;99.90
22974;DHT22;11653;50.848;4.584;2022-12-18T00:48:31;-4.60;99.90
22974;DHT22;11653;50.848;4.584;2022-12-18T00:50:57;-4.70;99.90
22974;DHT22;11653;50.848;4.584;2022-12-18T00:53:23;-4.60;99.90
22974;DHT22;11653;50.848;4.584;2022-12-18T00:55:48;-4.70;99.90
22974;DHT22;11653;50.848;4.584;2022-12-18T00:58:16;-4.70;99.90
22974;DHT22;11653;50.848;4.584;2022-12-18T01:00:42;-4.70;99.90
22974;DHT22;11653;50.848;4.584;2022-12-18T01:03:10;-4.60;99.90
22974;DHT22;11653;50.848;4.584;2022-12-18T01:05:40;-4.60;99.90
22974;DHT22;11653;50.848;4.584;2022-12-18T01:08:06;-4.60;99.90
22974;DHT22;11653;50.848;4.584;2022-12-18T01:10:31;-4.60;99.90
22974;DHT22;11653;50.848;4.584;2022-12-18T01:12:57;-4.50;99.90
22974;DHT22;11653;50.848;4.584;2022-12-18T01:15:22;-4.50;99.90
22974;DHT22;11653;50.848;4.584;2022-12-18T01:17:48;-4.50;99.90
22974;DHT22;11653;50.848;4.584;2022-12-18T01:20:14;-4.60;99.90
22974;DHT22;11653;50.848;4.584;2022-12-18T01:22:40;-4.70;99.90
22974;DHT22;11653;50.848;4.584;2022-12-18T01:25:06;-4.70;99.90
22974;DHT22;11653;50.848;4.584;2022-12-18T01:27:33;-4.70;99.90
22974;DHT22;11653;50.848;4.584;2022-12-18T01:29:59;-4.80;99.90
22974;DHT22;11653;50.848;4.584;2022-12-18T01:32:25;-4.80;99.90
22974;DHT22;11653;50.848;4.584;2022-12-18T01:34:51;-4.90;99.90
22974;DHT22;11653;50.848;4.584;2022-12-18T01:37:16;-4.90;99.90
22974;DHT22;11653;50.848;4.584;2022-12-18T01:39:42;-5.00;99.90
22974;DHT22;11653;50.848;4.584;2022-12-18T01:42:13;-5.00;99.90
22974;DHT22;11653;50.848;4.584;2022-12-18T01:45:00;-5.00;99.90
22974;DHT22;11653;50.848;4.584;2022-12-18T01:52:38;-5.00;99.90
22974;DHT22;11653;50.848;4.584;2022-12-18T01:55:07;-5.10;99.90
22974;DHT22;11653;50.848;4.584;2022-12-18T01:57:33;-5.10;99.90
22974;DHT22;11653;50.848;4.584;2022-12-18T02:00:04;-5.10;99.90
22974;DHT22;11653;50.848;4.584;2022-12-18T02:02:31;-5.10;99.90
22974;DHT22;11653;50.848;4.584;2022-12-18T02:04:57;-5.10;99.90
22974;DHT22;11653;50.848;4.584;2022-12-18T02:07:52;-5.10;99.90
22974;DHT22;11653;50.848;4.584;2022-12-18T02:13:16;-5.10;99.90
22974;DHT22;11653;50.848;4.584;2022-12-18T02:18:20;-5.10;99.90
22974;DHT22;11653;50.848;4.584;2022-12-18T02:20:54;-5.10;99.90
22974;DHT22;11653;50.848;4.584;2022-12-18T02:23:44;-5.20;99.90
22974;DHT22;11653;50.848;4.584;2022-12-18T02:29:01;-5.20;99.90
22974;DHT22;11653;50.848;4.584;2022-12-18T02:31:34;-5.20;99.90
22974;DHT22;11653;50.848;4.584;2022-12-18T02:34:03;-5.10;99.90
22974;DHT22;11653;50.848;4.584;2022-12-18T02:36:31;-5.30;99.90
22974;DHT22;11653;50.848;4.584;2022-12-18T02:38:58;-5.30;99.90
22974;DHT22;11653;50.848;4.584;2022-12-18T02:41:25;-5.30;99.90
22974;DHT22;11653;50.848;4.584;2022-12-18T02:44:06;-5.30;99.90
22974;DHT22;11653;50.848;4.584;2022-12-18T02:46:43;-5.40;99.90
22974;DHT22;11653;50.848;4.584;2022-12-18T02:52:24;-5.60;99.90
22974;DHT22;11653;50.848;4.584;2022-12-18T02:55:17;-5.70;99.90
22974;DHT22;11653;50.848;4.584;2022-12-18T02:57:55;-5.60;99.90
22974;DHT22;11653;50.848;4.584;2022-12-18T03:00:24;-5.70;99.90
22974;DHT22;11653;50.848;4.584;2022-12-18T03:03:06;-5.70;99.90
22974;DHT22;11653;50.848;4.584;2022-12-18T03:05:41;-5.60;99.90
22974;DHT22;11653;50.848;4.584;2022-12-18T03:08:19;-5.70;99.90
22974;DHT22;11653;50.848;4.584;2022-12-18T03:10:51;-5.80;99.90
22974;DHT22;11653;50.848;4.584;2022-12-18T03:13:28;-5.90;99.90
22974;DHT22;11653;50.848;4.584;2022-12-18T03:15:58;-6.00;99.90
22974;DHT22;11653;50.848;4.584;2022-12-18T03:18:30;-6.00;99.90
22974;DHT22;11653;50.848;4.584;2022-12-18T03:21:00;-6.00;99.90
22974;DHT22;11653;50.848;4.584;2022-12-18T03:23:30;-6.10;99.90
22974;DHT22;11653;50.848;4.584;2022-12-18T03:26:00;-6.00;99.90
22974;DHT22;11653;50.848;4.584;2022-12-18T03:28:27;-6.00;99.90
22974;DHT22;11653;50.848;4.584;2022-12-18T03:30:57;-5.90;99.90
22974;DHT22;11653;50.848;4.584;2022-12-18T03:33:30;-5.90;99.90
22974;DHT22;11653;50.848;4.584;2022-12-18T03:36:00;-5.90;99.90
22974;DHT22;11653;50.848;4.584;2022-12-18T03:38:26;-6.00;99.90
22974;DHT22;11653;50.848;4.584;2022-12-18T03:41:18;-6.20;99.90
22974;DHT22;11653;50.848;4.584;2022-12-18T03:43:52;-6.30;99.90
22974;DHT22;11653;50.848;4.584;2022-12-18T03:46:32;-6.30;99.90
22974;DHT22;11653;50.848;4.584;2022-12-18T03:49:30;-6.20;99.90
22974;DHT22;11653;50.848;4.584;2022-12-18T03:52:09;-6.30;99.90
22974;DHT22;11653;50.848;4.584;2022-12-18T03:54:37;-6.40;99.90
22974;DHT22;11653;50.848;4.584;2022-12-18T03:57:11;-6.40;99.90
22974;DHT22;11653;50.848;4.584;2022-12-18T03:59:39;-6.40;99.90
22974;DHT22;11653;50.848;4.584;2022-12-18T04:02:07;-6.30;99.90
22974;DHT22;11653;50.848;4.584;2022-12-18T04:04:34;-6.30;99.90
22974;DHT22;11653;50.848;4.584;2022-12-18T04:07:01;-6.30;99.90
22974;DHT22;11653;50.848;4.584;2022-12-18T04:09:28;-6.40;99.90
22974;DHT22;11653;50.848;4.584;2022-12-18T04:11:55;-6.40;99.90
22974;DHT22;11653;50.848;4.584;2022-12-18T04:14:21;-6.40;99.90
22974;DHT22;11653;50.848;4.584;2022-12-18T04:16:46;-6.30;99.90
22974;DHT22;11653;50.848;4.584;2022-12-18T04:19:12;-6.30;99.90
22974;DHT22;11653;50.848;4.584;2022-12-18T04:21:38;-6.20;99.90
22974;DHT22;11653;50.848;4.584;2022-12-18T04:24:04;-6.20;99.90
22974;DHT22;11653;50.848;4.584;2022-12-18T04:26:30;-6.30;99.90
22974;DHT22;11653;50.848;4.584;2022-12-18T04:28:55;-6.40;99.90
22974;DHT22;11653;50.848;4.584;2022-12-18T04:31:21;-6.50;99.90
22974;DHT22;11653;50.848;4.584;2022-12-18T04:33:47;-6.50;99.90
22974;DHT22;11653;50.848;4.584;2022-12-18T04:36:12;-6.50;99.90
22974;DHT22;11653;50.848;4.584;2022-12-18T04:38:38;-6.50;99.90
22974;DHT22;11653;50.848;4.584;2022-12-18T04:41:04;-6.50;99.90
22974;DHT22;11653;50.848;4.584;2022-12-18T04:43:29;-6.50;99.90
22974;DHT22;11653;50.848;4.584;2022-12-18T04:46:15;-6.50;99.90
22974;DHT22;11653;50.848;4.584;2022-12-18T04:48:41;-6.40;99.90
22974;DHT22;11653;50.848;4.584;2022-12-18T04:51:07;-6.50;99.90
22974;DHT22;11653;50.848;4.584;2022-12-18T04:53:33;-6.40;99.90
22974;DHT22;11653;50.848;4.584;2022-12-18T04:56:07;-6.40;99.90
22974;DHT22;11653;50.848;4.584;2022-12-18T04:58:34;-6.50;99.90
22974;DHT22;11653;50.848;4.584;2022-12-18T05:00:59;-6.50;99.90
22974;DHT22;11653;50.848;4.584;2022-12-18T05:03:25;-6.60;99.90
22974;DHT22;11653;50.848;4.584;2022-12-18T05:05:51;-6.70;99.90
22974;DHT22;11653;50.848;4.584;2022-12-18T05:08:17;-6.60;99.90
22974;DHT22;11653;50.848;4.584;2022-12-18T05:10:43;-6.70;99.90
22974;DHT22;11653;50.848;4.584;2022-12-18T05:13:09;-6.60;99.90
22974;DHT22;11653;50.848;4.584;2022-12-18T05:15:35;-6.50;99.90
22974;DHT22;11653;50.848;4.584;2022-12-18T05:18:02;-6.60;99.90
22974;DHT22;11653;50.848;4.584;2022-12-18T05:20:28;-6.60;99.90
22974;DHT22;11653;50.848;4.584;2022-12-18T05:22:54;-6.60;99.90
22974;DHT22;11653;50.848;4.584;2022-12-18T05:25:20;-6.60;99.90
22974;DHT22;11653;50.848;4.584;2022-12-18T05:27:46;-6.60;99.90
22974;DHT22;11653;50.848;4.584;2022-12-18T05:30:13;-6.60;99.90
22974;DHT22;11653;50.848;4.584;2022-12-18T05:32:39;-6.50;99.90
22974;DHT22;11653;50.848;4.584;2022-12-18T05:35:07;-6.50;99.90
22974;DHT22;11653;50.848;4.584;2022-12-18T05:37:33;-6.40;99.90
22974;DHT22;11653;50.848;4.584;2022-12-18T05:39:59;-6.50;99.90
22974;DHT22;11653;50.848;4.584;2022-12-18T05:42:24;-6.60;99.90
22974;DHT22;11653;50.848;4.584;2022-12-18T05:44:50;-6.60;99.90
22974;DHT22;11653;50.848;4.584;2022-12-18T05:47:16;-6.70;99.90
22974;DHT22;11653;50.848;4.584;2022-12-18T05:49:41;-6.60;99.90
22974;DHT22;11653;50.848;4.584;2022-12-18T05:52:07;-6.50;99.90
22974;DHT22;11653;50.848;4.584;2022-12-18T05:54:33;-6.30;99.90
22974;DHT22;11653;50.848;4.584;2022-12-18T05:56:58;-6.30;99.90
22974;DHT22;11653;50.848;4.584;2022-12-18T05:59:24;-6.40;99.90
22974;DHT22;11653;50.848;4.584;2022-12-18T06:01:50;-6.50;99.90
22974;DHT22;11653;50.848;4.584;2022-12-18T06:04:15;-6.60;99.90
22974;DHT22;11653;50.848;4.584;2022-12-18T06:06:41;-6.60;99.90
22974;DHT22;11653;50.848;4.584;2022-12-18T06:09:07;-6.60;99.90
22974;DHT22;11653;50.848;4.584;2022-12-18T06:11:34;-6.60;99.90
22974;DHT22;11653;50.848;4.584;2022-12-18T06:14:00;-6.50;99.90
22974;DHT22;11653;50.848;4.584;2022-12-18T06:16:30;-6.40;99.90
22974;DHT22;11653;50.848;4.584;2022-12-18T06:19:00;-6.50;99.90
22974;DHT22;11653;50.848;4.584;2022-12-18T06:21:27;-6.50;99.90
22974;DHT22;11653;50.848;4.584;2022-12-18T06:23:53;-6.50;99.90
22974;DHT22;11653;50.848;4.584;2022-12-18T06:26:18;-6.50;99.90
22974;DHT22;11653;50.848;4.584;2022-12-18T06:28:44;-6.60;99.90
22974;DHT22;11653;50.848;4.584;2022-12-18T06:31:10;-6.60;99.90
22974;DHT22;11653;50.848;4.584;2022-12-18T06:33:36;-6.50;99.90
22974;DHT22;11653;50.848;4.584;2022-12-18T06:36:03;-6.40;99.90
22974;DHT22;11653;50.848;4.584;2022-12-18T06:38:31;-6.30;99.90
22974;DHT22;11653;50.848;4.584;2022-12-18T06:40:57;-6.40;99.90
22974;DHT22;11653;50.848;4.584;2022-12-18T06:43:23;-6.50;99.90
22974;DHT22;11653;50.848;4.584;2022-12-18T06:45:48;-6.40;99.90
22974;DHT22;11653;50.848;4.584;2022-12-18T06:48:21;-6.30;99.90
22974;DHT22;11653;50.848;4.584;2022-12-18T06:50:47;-6.40;99.90
22974;DHT22;11653;50.848;4.584;2022-12-18T06:53:13;-6.40;99.90
22974;DHT22;11653;50.848;4.584;2022-12-18T06:55:39;-6.40;99.90
22974;DHT22;11653;50.848;4.584;2022-12-18T06:58:04;-6.40;99.90
22974;DHT22;11653;50.848;4.584;2022-12-18T07:00:30;-6.40;99.90
22974;DHT22;11653;50.848;4.584;2022-12-18T07:02:56;-6.40;99.90
22974;DHT22;11653;50.848;4.584;2022-12-18T07:05:21;-6.50;99.90
22974;DHT22;11653;50.848;4.584;2022-12-18T07:07:47;-6.50;99.90
22974;DHT22;11653;50.848;4.584;2022-12-18T07:10:12;-6.50;99.90
22974;DHT22;11653;50.848;4.584;2022-12-18T07:12:38;-6.40;99.90
22974;DHT22;11653;50.848;4.584;2022-12-18T07:15:04;-6.30;99.90
22974;DHT22;11653;50.848;4.584;2022-12-18T07:17:30;-6.10;99.90
22974;DHT22;11653;50.848;4.584;2022-12-18T07:19:56;-6.10;99.90
22974;DHT22;11653;50.848;4.584;2022-12-18T07:22:21;-6.10;99.90
22974;DHT22;11653;50.848;4.584;2022-12-18T07:24:47;-6.10;99.90
22974;DHT22;11653;50.848;4.584;2022-12-18T07:27:14;-6.00;99.90
22974;DHT22;11653;50.848;4.584;2022-12-18T07:29:40;-5.90;99.90
22974;DHT22;11653;50.848;4.584;2022-12-18T07:32:05;-5.90;99.90
22974;DHT22;11653;50.848;4.584;2022-12-18T07:34:32;-5.90;99.90
22974;DHT22;11653;50.848;4.584;2022-12-18T07:36:58;-5.80;99.90
22974;DHT22;11653;50.848;4.584;2022-12-18T07:39:23;-5.70;99.90
22974;DHT22;11653;50.848;4.584;2022-12-18T07:41:49;-5.70;99.90
22974;DHT22;11653;50.848;4.584;2022-12-18T07:44:35;-5.70;99.90
22974;DHT22;11653;50.848;4.584;2022-12-18T07:47:01;-5.70;99.90
22974;DHT22;11653;50.848;4.584;2022-12-18T07:49:27;-5.60;99.90
22974;DHT22;11653;50.848;4.584;2022-12-18T07:51:55;-5.40;99.90
22974;DHT22;11653;50.848;4.584;2022-12-18T07:54:22;-5.50;99.90
22974;DHT22;11653;50.848;4.584;2022-12-18T07:56:48;-5.50;99.90
22974;DHT22;11653;50.848;4.584;2022-12-18T07:59:14;-5.60;99.90
22974;DHT22;11653;50.848;4.584;2022-12-18T08:01:40;-5.50;99.90
22974;DHT22;11653;50.848;4.584;2022-12-18T08:04:05;-5.50;99.90
22974;DHT22;11653;50.848;4.584;2022-12-18T08:06:31;-5.40;99.90
22974;DHT22;11653;50.848;4.584;2022-12-18T08:08:57;-5.30;99.90
22974;DHT22;11653;50.848;4.584;2022-12-18T08:11:25;-5.20;99.90
22974;DHT22;11653;50.848;4.584;2022-12-18T08:13:51;-5.10;99.90
22974;DHT22;11653;50.848;4.584;2022-12-18T08:16:17;-5.00;99.90
22974;DHT22;11653;50.848;4.584;2022-12-18T08:18:43;-4.80;99.90
22974;DHT22;11653;50.848;4.584;2022-12-18T08:21:20;-4.70;99.90
22974;DHT22;11653;50.848;4.584;2022-12-18T08:23:48;-4.60;99.90
22974;DHT22;11653;50.848;4.584;2022-12-18T08:26:14;-4.50;99.90
22974;DHT22;11653;50.848;4.584;2022-12-18T08:28:41;-4.50;99.90
22974;DHT22;11653;50.848;4.584;2022-12-18T08:31:07;-4.40;99.90
22974;DHT22;11653;50.848;4.584;2022-12-18T08:33:34;-4.30;99.90
22974;DHT22;11653;50.848;4.584;2022-12-18T08:36:01;-4.20;99.90
22974;DHT22;11653;50.848;4.584;2022-12-18T08:38:27;-4.00;99.90
22974;DHT22;11653;50.848;4.584;2022-12-18T08:41:13;-3.90;99.90
22974;DHT22;11653;50.848;4.584;2022-12-18T08:43:40;-3.70;99.90
22974;DHT22;11653;50.848;4.584;2022-12-18T08:46:25;-3.50;99.90
22974;DHT22;11653;50.848;4.584;2022-12-18T08:48:52;-3.40;99.90
22974;DHT22;11653;50.848;4.584;2022-12-18T08:51:18;-3.20;99.90
22974;DHT22;11653;50.848;4.584;2022-12-18T08:53:45;-3.10;99.90
22974;DHT22;11653;50.848;4.584;2022-12-18T08:56:11;-3.00;99.90
22974;DHT22;11653;50.848;4.584;2022-12-18T08:58:37;-2.80;99.90
22974;DHT22;11653;50.848;4.584;2022-12-18T09:01:04;-2.70;99.90
22974;DHT22;11653;50.848;4.584;2022-12-18T09:03:30;-2.50;99.90
22974;DHT22;11653;50.848;4.584;2022-12-18T09:05:56;-2.50;99.90
22974;DHT22;11653;50.848;4.584;2022-12-18T09:08:22;-2.40;99.90
22974;DHT22;11653;50.848;4.584;2022-12-18T09:10:49;-2.30;99.90
22974;DHT22;11653;50.848;4.584;2022-12-18T09:13:16;-2.20;99.90
22974;DHT22;11653;50.848;4.584;2022-12-18T09:15:51;-2.20;99.90
22974;DHT22;11653;50.848;4.584;2022-12-18T09:18:18;-2.30;99.90
22974;DHT22;11653;50.848;4.584;2022-12-18T09:20:45;-2.30;99.90
22974;DHT22;11653;50.848;4.584;2022-12-18T09:23:11;-2.00;99.90
22974;DHT22;11653;50.848;4.584;2022-12-18T09:25:38;-2.00;99.90
22974;DHT22;11653;50.848;4.584;2022-12-18T09:28:06;-1.70;99.90
22974;DHT22;11653;50.848;4.584;2022-12-18T09:30:32;-1.70;99.90
22974;DHT22;11653;50.848;4.584;2022-12-18T09:32:59;-1.50;99.90
22974;DHT22;11653;50.848;4.584;2022-12-18T09:35:25;-1.50;99.90
22974;DHT22;11653;50.848;4.584;2022-12-18T09:37:53;-1.50;99.90
22974;DHT22;11653;50.848;4.584;2022-12-18T09:40:22;-1.80;99.90
22974;DHT22;11653;50.848;4.584;2022-12-18T09:42:56;-1.90;99.90
22974;DHT22;11653;50.848;4.584;2022-12-18T09:45:23;-2.00;99.90
22974;DHT22;11653;50.848;4.584;2022-12-18T09:47:52;-1.70;99.90
22974;DHT22;11653;50.848;4.584;2022-12-18T09:50:31;-1.80;99.90
22974;DHT22;11653;50.848;4.584;2022-12-18T09:53:02;-2.10;99.90
22974;DHT22;11653;50.848;4.584;2022-12-18T09:55:44;-2.20;99.90
22974;DHT22;11653;50.848;4.584;2022-12-18T09:58:41;-2.30;99.90
22974;DHT22;11653;50.848;4.584;2022-12-18T10:01:18;-2.20;99.90
22974;DHT22;11653;50.848;4.584;2022-12-18T10:03:45;-2.00;99.90
22974;DHT22;11653;50.848;4.584;2022-12-18T10:06:26;-2.00;99.90
22974;DHT22;11653;50.848;4.584;2022-12-18T10:19:47;-1.70;99.90
22974;DHT22;11653;50.848;4.584;2022-12-18T10:22:39;-1.60;99.90
22974;DHT22;11653;50.848;4.584;2022-12-18T10:28:25;-1.60;99.90
22974;DHT22;11653;50.848;4.584;2022-12-18T10:30:51;-1.40;99.90
22974;DHT22;11653;50.848;4.584;2022-12-18T10:33:23;-1.20;99.90
22974;DHT22;11653;50.848;4.584;2022-12-18T10:35:50;-1.00;99.90
22974;DHT22;11653;50.848;4.584;2022-12-18T10:40:49;-0.40;99.90
22974;DHT22;11653;50.848;4.584;2022-12-18T10:43:21;-0.10;99.90
22974;DHT22;11653;50.848;4.584;2022-12-18T10:48:55;-0.60;99.90
22974;DHT22;11653;50.848;4.584;2022-12-18T10:53:57;-0.90;99.90
22974;DHT22;11653;50.848;4.584;2022-12-18T10:56:26;-1.00;99.90
22974;DHT22;11653;50.848;4.584;2022-12-18T10:59:12;-1.00;99.90
22974;DHT22;11653;50.848;4.584;2022-12-18T11:01:56;-1.10;99.90
22974;DHT22;11653;50.848;4.584;2022-12-18T11:04:30;-0.90;99.90
22974;DHT22;11653;50.848;4.584;2022-12-18T11:07:02;-0.50;99.90
22974;DHT22;11653;50.848;4.584;2022-12-18T11:09:35;-0.30;99.90
22974;DHT22;11653;50.848;4.584;2022-12-18T11:12:04;-0.10;99.90
22974;DHT22;11653;50.848;4.584;2022-12-18T11:14:49;0.20;99.90
22974;DHT22;11653;50.848;4.584;2022-12-18T11:17:27;0.50;99.90
22974;DHT22;11653;50.848;4.584;2022-12-18T11:19:59;0.50;99.90
22974;DHT22;11653;50.848;4.584;2022-12-18T11:22:31;0.60;99.90
22974;DHT22;11653;50.848;4.584;2022-12-18T11:25:01;0.50;99.90
22974;DHT22;11653;50.848;4.584;2022-12-18T11:27:28;0.50;99.90
22974;DHT22;11653;50.848;4.584;2022-12-18T11:30:40;0.60;99.90
22974;DHT22;11653;50.848;4.584;2022-12-18T11:33:06;0.60;99.90
22974;DHT22;11653;50.848;4.584;2022-12-18T11:35:56;0.80;99.90
22974;DHT22;11653;50.848;4.584;2022-12-18T11:38:40;0.80;99.90
22974;DHT22;11653;50.848;4.584;2022-12-18T11:41:41;0.80;99.90
22974;DHT22;11653;50.848;4.584;2022-12-18T11:44:46;0.90;99.90
22974;DHT22;11653;50.848;4.584;2022-12-18T11:47:34;1.10;99.90
22974;DHT22;11653;50.848;4.584;2022-12-18T11:50:29;1.10;99.90
22974;DHT22;11653;50.848;4.584;2022-12-18T11:52:56;1.30;99.90
22974;DHT22;11653;50.848;4.584;2022-12-18T11:55:31;1.30;99.90
22974;DHT22;11653;50.848;4.584;2022-12-18T12:00:52;1.40;99.90
22974;DHT22;11653;50.848;4.584;2022-12-18T12:06:45;1.80;99.90
22974;DHT22;11653;50.848;4.584;2022-12-18T12:19:48;2.30;99.90
22974;DHT22;11653;50.848;4.584;2022-12-18T12:25:18;2.40;99.90
22974;DHT22;11653;50.848;4.584;2022-12-18T12:38:36;2.80;99.90
22974;DHT22;11653;50.848;4.584;2022-12-18T12:41:05;2.90;99.90
22974;DHT22;11653;50.848;4.584;2022-12-18T12:43:38;3.00;99.90
22974;DHT22;11653;50.848;4.584;2022-12-18T12:46:08;3.10;99.90
22974;DHT22;11653;50.848;4.584;2022-12-18T12:48:47;3.10;99.90
22974;DHT22;11653;50.848;4.584;2022-12-18T12:51:22;3.20;99.90
22974;DHT22;11653;50.848;4.584;2022-12-18T12:53:49;3.10;99.90
22974;DHT22;11653;50.848;4.584;2022-12-18T12:56:17;3.00;99.90
22974;DHT22;11653;50.848;4.584;2022-12-18T13:13:12;3.20;99.90
22974;DHT22;11653;50.848;4.584;2022-12-18T13:16:08;3.10;99.90
22974;DHT22;11653;50.848;4.584;2022-12-18T13:18:36;3.00;99.90
22974;DHT22;11653;50.848;4.584;2022-12-18T13:21:10;3.10;99.90
22974;DHT22;11653;50.848;4.584;2022-12-18T13:23:37;3.00;99.90
22974;DHT22;11653;50.848;4.584;2022-12-18T13:31:02;3.30;99.90
22974;DHT22;11653;50.848;4.584;2022-12-18T13:33:45;2.90;99.90
22974;DHT22;11653;50.848;4.584;2022-12-18T13:36:26;2.90;99.90
22974;DHT22;11653;50.848;4.584;2022-12-18T13:39:20;3.00;99.90
22974;DHT22;11653;50.848;4.584;2022-12-18T13:41:52;3.10;99.90
22974;DHT22;11653;50.848;4.584;2022-12-18T13:44:37;3.10;99.90
22974;DHT22;11653;50.848;4.584;2022-12-18T13:49:50;3.00;99.90
22974;DHT22;11653;50.848;4.584;2022-12-18T13:52:22;2.90;99.90
22974;DHT22;11653;50.848;4.584;2022-12-18T13:54:56;2.90;99.90
22974;DHT22;11653;50.848;4.584;2022-12-18T13:57:34;2.90;99.90
22974;DHT22;11653;50.848;4.584;2022-12-18T14:02:49;3.00;99.90
22974;DHT22;11653;50.848;4.584;2022-12-18T14:05:28;3.00;99.90
22974;DHT22;11653;50.848;4.584;2022-12-18T14:07:59;3.00;99.90
22974;DHT22;11653;50.848;4.584;2022-12-18T14:10:26;3.10;99.90
22974;DHT22;11653;50.848;4.584;2022-12-18T14:12:51;3.20;99.90
22974;DHT22;11653;50.848;4.584;2022-12-18T14:20:43;3.30;99.90
22974;DHT22;11653;50.848;4.584;2022-12-18T14:23:42;3.20;99.90
22974;DHT22;11653;50.848;4.584;2022-12-18T14:26:26;3.10;99.90
22974;DHT22;11653;50.848;4.584;2022-12-18T14:28:57;3.00;99.90
22974;DHT22;11653;50.848;4.584;2022-12-18T14:31:25;2.90;99.90
22974;DHT22;11653;50.848;4.584;2022-12-18T14:33:52;2.80;99.90
22974;DHT22;11653;50.848;4.584;2022-12-18T14:36:26;2.80;99.90
22974;DHT22;11653;50.848;4.584;2022-12-18T14:38:57;2.70;99.90
22974;DHT22;11653;50.848;4.584;2022-12-18T14:41:23;2.60;99.90
22974;DHT22;11653;50.848;4.584;2022-12-18T14:43:51;2.70;99.90
22974;DHT22;11653;50.848;4.584;2022-12-18T14:46:33;2.80;99.90
22974;DHT22;11653;50.848;4.584;2022-12-18T14:49:44;2.70;99.90
22974;DHT22;11653;50.848;4.584;2022-12-18T14:51:59;2.60;99.90
22974;DHT22;11653;50.848;4.584;2022-12-18T14:54:26;2.50;99.90
22974;DHT22;11653;50.848;4.584;2022-12-18T14:59:30;2.40;99.90
22974;DHT22;11653;50.848;4.584;2022-12-18T15:04:27;2.60;99.90
22974;DHT22;11653;50.848;4.584;2022-12-18T15:07:23;2.60;99.90
22974;DHT22;11653;50.848;4.584;2022-12-18T15:10:10;2.50;99.90
22974;DHT22;11653;50.848;4.584;2022-12-18T15:12:41;2.40;99.90
22974;DHT22;11653;50.848;4.584;2022-12-18T15:18:14;2.30;99.90
22974;DHT22;11653;50.848;4.584;2022-12-18T15:20:48;2.30;99.90
22974;DHT22;11653;50.848;4.584;2022-12-18T15:23:21;2.40;99.90
22974;DHT22;11653;50.848;4.584;2022-12-18T15:26:01;2.40;99.90
22974;DHT22;11653;50.848;4.584;2022-12-18T15:28:35;2.30;99.90
22974;DHT22;11653;50.848;4.584;2022-12-18T15:33:34;2.30;99.90
22974;DHT22;11653;50.848;4.584;2022-12-18T15:36:02;2.40;99.90
22974;DHT22;11653;50.848;4.584;2022-12-18T15:38:28;2.50;99.90
22974;DHT22;11653;50.848;4.584;2022-12-18T15:40:54;2.40;99.90
22974;DHT22;11653;50.848;4.584;2022-12-18T15:43:24;2.40;99.90
22974;DHT22;11653;50.848;4.584;2022-12-18T15:46:04;2.30;99.90
22974;DHT22;11653;50.848;4.584;2022-12-18T15:48:33;2.30;99.90
22974;DHT22;11653;50.848;4.584;2022-12-18T15:50:59;2.30;99.90
22974;DHT22;11653;50.848;4.584;2022-12-18T15:53:29;2.30;99.90
22974;DHT22;11653;50.848;4.584;2022-12-18T15:55:55;2.40;99.90
22974;DHT22;11653;50.848;4.584;2022-12-18T15:58:39;2.40;99.90
22974;DHT22;11653;50.848;4.584;2022-12-18T16:01:05;2.40;99.90
22974;DHT22;11653;50.848;4.584;2022-12-18T16:03:32;2.40;99.90
22974;DHT22;11653;50.848;4.584;2022-12-18T16:05:59;2.40;99.90
22974;DHT22;11653;50.848;4.584;2022-12-18T16:08:28;2.30;99.90
22974;DHT22;11653;50.848;4.584;2022-12-18T16:10:54;2.20;99.90
22974;DHT22;11653;50.848;4.584;2022-12-18T16:13:20;2.30;99.90
22974;DHT22;11653;50.848;4.584;2022-12-18T16:15:46;2.30;99.90
22974;DHT22;11653;50.848;4.584;2022-12-18T16:18:12;2.40;99.90
22974;DHT22;11653;50.848;4.584;2022-12-18T16:20:38;2.40;99.90
22974;DHT22;11653;50.848;4.584;2022-12-18T16:23:04;2.50;99.90
22974;DHT22;11653;50.848;4.584;2022-12-18T16:25:29;2.50;99.90
22974;DHT22;11653;50.848;4.584;2022-12-18T16:27:56;2.60;99.90
22974;DHT22;11653;50.848;4.584;2022-12-18T16:30:24;2.60;99.90
22974;DHT22;11653;50.848;4.584;2022-12-18T16:32:51;2.70;99.90
22974;DHT22;11653;50.848;4.584;2022-12-18T16:35:17;2.70;99.90
22974;DHT22;11653;50.848;4.584;2022-12-18T16:37:43;2.60;99.90
22974;DHT22;11653;50.848;4.584;2022-12-18T16:40:12;2.60;99.90
22974;DHT22;11653;50.848;4.584;2022-12-18T16:42:39;2.70;99.90
22974;DHT22;11653;50.848;4.584;2022-12-18T16:45:06;2.70;99.90
22974;DHT22;11653;50.848;4.584;2022-12-18T16:47:33;2.70;99.90
22974;DHT22;11653;50.848;4.584;2022-12-18T16:49:59;2.70;99.90
22974;DHT22;11653;50.848;4.584;2022-12-18T16:52:24;2.60;99.90
22974;DHT22;11653;50.848;4.584;2022-12-18T16:54:50;2.60;99.90
22974;DHT22;11653;50.848;4.584;2022-12-18T16:57:18;2.60;99.90
22974;DHT22;11653;50.848;4.584;2022-12-18T16:59:45;2.60;99.90
22974;DHT22;11653;50.848;4.584;2022-12-18T17:02:20;2.70;99.90
22974;DHT22;11653;50.848;4.584;2022-12-18T17:04:46;2.70;99.90
22974;DHT22;11653;50.848;4.584;2022-12-18T17:07:12;2.70;99.90
22974;DHT22;11653;50.848;4.584;2022-12-18T17:09:39;2.80;99.90
22974;DHT22;11653;50.848;4.584;2022-12-18T17:12:05;2.80;99.90
22974;DHT22;11653;50.848;4.584;2022-12-18T17:14:31;2.80;99.90
22974;DHT22;11653;50.848;4.584;2022-12-18T17:16:57;2.90;99.90
22974;DHT22;11653;50.848;4.584;2022-12-18T17:19:25;2.90;99.90
22974;DHT22;11653;50.848;4.584;2022-12-18T17:21:51;2.90;99.90
22974;DHT22;11653;50.848;4.584;2022-12-18T17:24:18;2.90;99.90
22974;DHT22;11653;50.848;4.584;2022-12-18T17:26:44;3.00;99.90
22974;DHT22;11653;50.848;4.584;2022-12-18T17:29:14;3.10;99.90
22974;DHT22;11653;50.848;4.584;2022-12-18T17:31:39;3.20;99.90
22974;DHT22;11653;50.848;4.584;2022-12-18T17:34:05;3.20;99.90
22974;DHT22;11653;50.848;4.584;2022-12-18T17:36:31;3.30;99.90
22974;DHT22;11653;50.848;4.584;2022-12-18T17:39:00;3.30;99.90
22974;DHT22;11653;50.848;4.584;2022-12-18T17:41:26;3.40;99.90
22974;DHT22;11653;50.848;4.584;2022-12-18T17:43:57;3.40;99.90